Time;durP1;ratioP1;P1;durP2;ratioP2;P2;SDS_P1;SDS_P2;PMS_P1;PMS_P2;Temp;Humidity;BMP_temperature;BMP_pressure;BME280_temperature;BME280_humidity;BME280_pressure;Samples;Min_cycle;Max_cycle;Signal;HPM_P1;HPM_P2
2021/12/26 00:01:01;;;;;;;2.10;1.70;;;2.30;99.90;;;;;;5008226;28;20210;-94
2021/12/26 00:03:35;;;;;;;4.30;1.90;;;2.20;99.90;;;;;;5007144;28;20202;-96
2021/12/26 00:06:11;;;;;;;2.00;1.73;;;2.20;99.90;;;;;;5003820;28;20212;-95
2021/12/26 00:08:46;;;;;;;2.57;1.70;;;2.20;99.90;;;;;;5005040;28;20619;-95
2021/12/26 00:11:18;;;;;;;3.43;1.70;;;2.20;99.90;;;;;;5005693;28;20208;-96
2021/12/26 00:13:53;;;;;;;4.83;1.90;;;2.20;99.90;;;;;;5002379;28;20227;-96
2021/12/26 00:16:25;;;;;;;2.90;1.80;;;2.10;99.90;;;;;;5001956;28;20634;-95
2021/12/26 00:19:00;;;;;;;3.80;1.90;;;2.20;99.90;;;;;;5001438;28;20230;-95
2021/12/26 00:21:31;;;;;;;3.03;2.60;;;2.30;99.90;;;;;;5002560;28;20206;-95
2021/12/26 00:24:06;;;;;;;3.33;2.30;;;2.20;99.90;;;;;;5002257;28;20298;-96
2021/12/26 00:26:37;;;;;;;1.73;1.47;;;2.10;99.90;;;;;;5003821;28;20206;-94
2021/12/26 00:29:11;;;;;;;2.07;0.77;;;1.80;99.90;;;;;;5004062;28;20198;-92
2021/12/26 00:31:44;;;;;;;0.90;0.63;;;1.60;99.90;;;;;;5003692;28;20249;-93
2021/12/26 00:34:18;;;;;;;2.13;0.80;;;1.30;99.90;;;;;;5003251;28;20243;-93
2021/12/26 00:36:49;;;;;;;1.60;0.80;;;1.20;99.90;;;;;;5000996;28;20244;-95
2021/12/26 00:39:23;;;;;;;2.07;1.00;;;1.10;99.90;;;;;;5002961;28;20230;-95
2021/12/26 00:41:54;;;;;;;1.03;0.70;;;1.00;99.90;;;;;;5002999;28;20210;-93
2021/12/26 00:44:26;;;;;;;2.13;0.60;;;1.00;99.90;;;;;;4984964;28;20218;-93
2021/12/26 00:46:58;;;;;;;2.33;0.73;;;0.90;99.90;;;;;;5002859;28;20295;-94
2021/12/26 00:49:30;;;;;;;1.43;0.50;;;0.90;99.90;;;;;;5001464;28;20210;-94
2021/12/26 00:52:01;;;;;;;0.90;0.53;;;0.90;99.90;;;;;;4984564;28;20270;-94
2021/12/26 00:54:34;;;;;;;1.90;0.60;;;0.80;99.90;;;;;;5005294;28;20205;-95
2021/12/26 00:57:15;;;;;;;1.20;0.50;;;0.80;99.90;;;;;;4984371;28;20678;-95
2021/12/26 00:59:46;;;;;;;1.73;0.60;;;0.70;99.90;;;;;;5002461;28;20591;-96
2021/12/26 01:02:18;;;;;;;4.80;1.00;;;0.70;99.90;;;;;;5000898;28;20265;-96
2021/12/26 01:04:51;;;;;;;1.97;1.73;;;0.80;99.90;;;;;;5000636;28;20300;-96
2021/12/26 01:07:32;;;;;;;3.27;2.97;;;0.80;99.90;;;;;;4999742;28;20202;-95
2021/12/26 01:10:07;;;;;;;2.13;1.80;;;0.80;99.90;;;;;;5000927;28;20233;-94
2021/12/26 01:12:40;;;;;;;2.87;1.90;;;0.80;99.90;;;;;;4990054;28;20233;-94
2021/12/26 01:15:12;;;;;;;1.97;1.53;;;0.80;99.90;;;;;;4987358;28;20285;-94
2021/12/26 01:17:45;;;;;;;2.70;1.80;;;0.70;99.90;;;;;;4986245;28;20240;-94
2021/12/26 01:20:28;;;;;;;1.30;1.20;;;0.70;99.90;;;;;;4984632;28;20257;-94
2021/12/26 01:22:59;;;;;;;2.03;1.10;;;0.70;99.90;;;;;;5002838;28;20235;-94
2021/12/26 01:25:33;;;;;;;2.27;1.20;;;0.70;99.90;;;;;;5002041;28;20330;-93
2021/12/26 01:28:06;;;;;;;0.97;0.90;;;0.70;99.90;;;;;;5006729;28;20222;-95
2021/12/26 01:30:40;;;;;;;1.80;0.90;;;0.70;99.90;;;;;;5020237;28;20245;-95
2021/12/26 01:33:14;;;;;;;1.97;1.20;;;0.70;99.90;;;;;;5008375;28;20216;-95
2021/12/26 01:35:47;;;;;;;12.30;1.37;;;0.70;99.90;;;;;;5011101;28;20658;-95
2021/12/26 01:38:20;;;;;;;1.07;0.97;;;0.70;99.90;;;;;;5000192;28;20202;-95
2021/12/26 01:40:56;;;;;;;3.40;1.13;;;0.70;99.90;;;;;;5000593;28;20660;-96
2021/12/26 01:43:32;;;;;;;1.30;0.90;;;0.80;99.90;;;;;;5001262;28;20250;-94
2021/12/26 01:46:04;;;;;;;1.43;0.90;;;0.80;99.90;;;;;;5001950;28;20278;-94
2021/12/26 01:48:37;;;;;;;4.50;1.00;;;0.80;99.90;;;;;;5003859;28;20208;-92
2021/12/26 01:51:08;;;;;;;2.70;1.40;;;0.80;99.90;;;;;;5010551;28;20211;-94
2021/12/26 01:53:40;;;;;;;3.37;1.40;;;0.80;99.90;;;;;;5006223;28;20208;-93
2021/12/26 01:56:15;;;;;;;2.20;1.47;;;0.80;99.90;;;;;;5008050;28;20221;-93
2021/12/26 01:58:46;;;;;;;2.43;1.17;;;0.80;99.90;;;;;;5007079;28;20254;-94
2021/12/26 02:01:17;;;;;;;4.20;1.40;;;0.80;99.90;;;;;;5004724;28;20272;-95
2021/12/26 02:03:49;;;;;;;3.47;1.40;;;0.80;99.90;;;;;;5004518;28;20277;-95
2021/12/26 02:06:21;;;;;;;1.93;1.63;;;0.80;99.90;;;;;;5016426;28;20196;-94
2021/12/26 02:08:53;;;;;;;3.60;1.90;;;0.90;99.90;;;;;;5001398;28;20208;-95
2021/12/26 02:11:26;;;;;;;3.97;2.10;;;0.90;99.90;;;;;;5012732;28;20209;-96
2021/12/26 02:13:57;;;;;;;5.67;2.10;;;0.90;99.90;;;;;;5005313;28;20216;-96
2021/12/26 02:16:29;;;;;;;6.80;2.40;;;0.90;99.90;;;;;;5002181;28;20264;-96
2021/12/26 02:19:00;;;;;;;3.33;2.73;;;1.00;99.90;;;;;;5002059;28;20213;-96
2021/12/26 02:21:52;;;;;;;2.37;2.00;;;1.00;99.90;;;;;;4999584;28;20234;-96
2021/12/26 02:24:28;;;;;;;2.53;2.00;;;1.00;99.90;;;;;;4999406;28;20230;-96
2021/12/26 02:29:48;;;;;;;4.37;2.60;;;1.00;99.90;;;;;;5000198;28;20296;-95
2021/12/26 02:32:19;;;;;;;4.90;2.73;;;0.90;99.90;;;;;;4999326;28;20340;-95
2021/12/26 02:34:50;;;;;;;3.87;2.57;;;0.90;99.90;;;;;;4982784;28;20206;-94
2021/12/26 02:37:26;;;;;;;3.90;3.00;;;1.00;99.90;;;;;;4998754;28;20225;-94
2021/12/26 02:39:58;;;;;;;3.87;2.50;;;1.00;99.90;;;;;;4998892;28;20221;-94
2021/12/26 02:42:31;;;;;;;5.03;2.10;;;0.90;99.90;;;;;;4998982;28;20210;-94
2021/12/26 02:45:03;;;;;;;2.20;1.70;;;0.80;99.90;;;;;;4980876;28;20265;-94
2021/12/26 02:47:38;;;;;;;3.37;2.30;;;0.80;99.90;;;;;;4983010;28;20237;-95
2021/12/26 02:50:12;;;;;;;6.13;1.90;;;0.80;99.90;;;;;;4988623;28;20208;-93
2021/12/26 02:52:47;;;;;;;4.07;2.03;;;0.80;99.90;;;;;;4966879;28;20371;-94
2021/12/26 02:55:21;;;;;;;3.20;2.20;;;0.80;99.90;;;;;;4985097;28;20212;-91
2021/12/26 02:57:57;;;;;;;4.10;1.90;;;0.70;99.90;;;;;;4983639;28;20239;-94
2021/12/26 03:00:34;;;;;;;2.87;2.37;;;0.70;99.90;;;;;;4984877;28;20234;-92
2021/12/26 03:03:08;;;;;;;2.80;1.93;;;0.70;99.90;;;;;;4986829;28;20276;-93
2021/12/26 03:05:45;;;;;;;3.70;1.80;;;0.70;99.90;;;;;;4986407;28;20216;-94
2021/12/26 03:08:21;;;;;;;2.60;1.60;;;0.70;99.90;;;;;;4984305;28;20670;-93
2021/12/26 03:10:56;;;;;;;5.17;1.90;;;0.70;99.90;;;;;;4972168;28;20236;-91
2021/12/26 03:13:30;;;;;;;8.50;2.40;;;0.70;99.90;;;;;;5001084;28;20209;-92
2021/12/26 03:16:01;;;;;;;3.83;2.03;;;0.60;99.90;;;;;;5010970;28;20208;-95
2021/12/26 03:18:33;;;;;;;5.03;2.30;;;0.70;99.90;;;;;;4990221;28;20209;-93
2021/12/26 03:21:05;;;;;;;3.73;2.23;;;0.70;99.90;;;;;;5009310;28;20269;-92
2021/12/26 03:23:42;;;;;;;2.17;1.90;;;0.70;99.90;;;;;;4978311;28;20235;-93
2021/12/26 03:26:15;;;;;;;2.53;1.60;;;0.70;99.90;;;;;;5007176;28;20677;-95
2021/12/26 03:28:53;;;;;;;4.60;2.00;;;0.70;99.90;;;;;;5010324;28;20208;-91
2021/12/26 03:31:29;;;;;;;2.93;1.93;;;0.70;99.90;;;;;;4997297;28;20250;-92
2021/12/26 03:34:03;;;;;;;3.20;2.63;;;0.70;99.90;;;;;;5014914;28;20228;-91
2021/12/26 03:36:36;;;;;;;4.37;2.37;;;0.60;99.90;;;;;;5008231;28;20214;-94
2021/12/26 03:39:09;;;;;;;3.10;2.43;;;0.60;99.90;;;;;;5006182;28;20238;-92
2021/12/26 03:41:41;;;;;;;7.03;2.50;;;0.60;99.90;;;;;;5006125;28;20264;-92
2021/12/26 03:44:13;;;;;;;3.17;2.10;;;0.60;99.90;;;;;;5006219;28;20278;-90
2021/12/26 03:46:47;;;;;;;5.37;2.50;;;0.60;99.90;;;;;;5009011;28;20209;-90
2021/12/26 03:49:20;;;;;;;4.43;2.57;;;0.60;99.90;;;;;;5014981;28;20263;-91
2021/12/26 03:51:53;;;;;;;3.90;2.10;;;0.60;99.90;;;;;;5008848;28;20213;-92
2021/12/26 03:54:26;;;;;;;7.37;2.57;;;0.60;99.90;;;;;;5005326;28;20213;-92
2021/12/26 03:57:00;;;;;;;3.27;2.20;;;0.60;99.90;;;;;;5009178;28;20213;-93
2021/12/26 03:59:40;;;;;;;5.70;2.43;;;0.60;99.90;;;;;;4991808;28;20236;-92
2021/12/26 04:02:11;;;;;;;3.70;2.50;;;0.50;99.90;;;;;;5007350;28;20351;-93
2021/12/26 04:04:46;;;;;;;6.87;3.00;;;0.60;99.90;;;;;;5008223;28;20563;-93
2021/12/26 04:07:21;;;;;;;3.80;2.53;;;0.60;99.90;;;;;;5012006;28;20294;-92
2021/12/26 04:09:55;;;;;;;3.50;2.40;;;0.50;99.90;;;;;;5010990;28;20223;-93
2021/12/26 04:12:34;;;;;;;3.77;2.33;;;0.50;99.90;;;;;;5012748;28;20237;-92
2021/12/26 04:15:09;;;;;;;3.80;2.47;;;0.50;99.90;;;;;;5013231;28;20216;-92
2021/12/26 04:17:42;;;;;;;6.10;2.30;;;0.50;99.90;;;;;;5003336;28;20206;-90
2021/12/26 04:20:15;;;;;;;3.20;2.30;;;0.50;99.90;;;;;;5020072;28;20192;-90
2021/12/26 04:22:48;;;;;;;4.67;2.60;;;0.50;99.90;;;;;;4999587;28;20257;-92
2021/12/26 04:25:24;;;;;;;7.97;5.13;;;0.40;99.90;;;;;;5015473;28;20214;-92
2021/12/26 04:27:56;;;;;;;2.07;1.87;;;0.40;99.90;;;;;;5014359;28;20251;-91
2021/12/26 04:30:29;;;;;;;8.17;7.47;;;0.40;99.90;;;;;;5010843;28;20216;-90
2021/12/26 04:33:01;;;;;;;3.40;1.73;;;0.40;99.90;;;;;;5001207;28;20227;-90
2021/12/26 04:35:35;;;;;;;3.23;2.20;;;0.40;99.90;;;;;;4998981;28;20213;-91
2021/12/26 04:38:10;;;;;;;4.00;3.60;;;0.40;99.90;;;;;;5010545;28;20265;-91
2021/12/26 04:40:51;;;;;;;9.57;2.53;;;0.40;99.90;;;;;;4997760;28;20210;-91
2021/12/26 04:43:25;;;;;;;4.07;2.43;;;0.40;99.90;;;;;;5006567;28;20239;-92
2021/12/26 04:45:58;;;;;;;2.47;1.60;;;0.30;99.90;;;;;;4990673;28;20243;-93
2021/12/26 04:48:31;;;;;;;2.63;1.47;;;0.30;99.90;;;;;;4988755;28;20227;-91
2021/12/26 04:51:04;;;;;;;4.40;2.90;;;0.30;99.90;;;;;;5008995;28;20241;-91
2021/12/26 04:53:40;;;;;;;4.80;2.10;;;0.30;99.90;;;;;;4991333;28;20236;-92
2021/12/26 04:56:14;;;;;;;3.07;1.63;;;0.30;99.90;;;;;;5010705;28;20275;-91
2021/12/26 04:58:45;;;;;;;6.10;2.03;;;0.30;99.90;;;;;;4992438;28;20287;-90
2021/12/26 05:01:18;;;;;;;9.07;3.20;;;0.20;99.90;;;;;;5013732;28;20209;-90
2021/12/26 05:06:38;;;;;;;4.23;1.57;;;0.20;99.90;;;;;;5750366;22;20310;-91
2021/12/26 05:09:14;;;;;;;4.13;1.57;;;0.20;99.90;;;;;;5034147;28;20237;-91
2021/12/26 05:14:46;;;;;;;1.83;1.20;;;0.10;99.90;;;;;;5922365;23;20248;-92
2021/12/26 05:17:21;;;;;;;3.00;2.30;;;0.10;99.90;;;;;;5041788;28;20210;-91
2021/12/26 05:19:56;;;;;;;5.23;3.77;;;0.10;99.90;;;;;;5052286;28;20207;-91
2021/12/26 05:33:23;;;;;;;5.00;1.30;;;0.20;99.90;;;;;;5799342;22;20261;-92
2021/12/26 05:38:38;;;;;;;3.00;1.47;;;0.20;99.90;;;;;;5437824;23;20260;-92
2021/12/26 05:41:12;;;;;;;3.43;1.80;;;0.20;99.90;;;;;;5034218;28;20193;-91
2021/12/26 05:43:51;;;;;;;2.97;1.40;;;0.20;99.90;;;;;;5018130;28;20230;-94
2021/12/26 05:46:45;;;;;;;3.13;1.70;;;0.20;99.90;;;;;;5059350;23;20247;-91
2021/12/26 05:49:20;;;;;;;5.67;1.50;;;0.10;99.90;;;;;;5038501;28;20186;-90
2021/12/26 05:51:55;;;;;;;2.50;1.23;;;0.10;99.90;;;;;;5038304;28;20199;-91
2021/12/26 05:54:32;;;;;;;5.03;1.80;;;0.10;99.90;;;;;;5036979;28;20212;-93
2021/12/26 05:57:07;;;;;;;3.37;1.73;;;0.00;99.90;;;;;;5037743;28;20229;-93
2021/12/26 05:59:43;;;;;;;4.47;4.07;;;0.00;99.90;;;;;;5022185;28;20605;-87
2021/12/26 06:02:16;;;;;;;5.50;2.23;;;-0.10;99.90;;;;;;5033015;28;20232;-91
2021/12/26 06:04:51;;;;;;;7.40;2.80;;;-0.10;99.90;;;;;;5014192;28;20212;-91
2021/12/26 06:07:23;;;;;;;3.50;1.10;;;-0.10;99.90;;;;;;5025943;28;20203;-92
2021/12/26 06:09:57;;;;;;;5.37;1.30;;;-0.10;99.90;;;;;;5008098;28;20207;-92
2021/12/26 06:12:29;;;;;;;2.80;1.40;;;-0.10;99.90;;;;;;5024100;28;20236;-92
2021/12/26 06:17:46;;;;;;;3.30;1.60;;;-0.20;99.90;;;;;;5022835;28;20208;-92
2021/12/26 06:20:21;;;;;;;1.73;1.00;;;-0.20;99.90;;;;;;5024102;28;20283;-90
2021/12/26 06:22:54;;;;;;;1.80;1.00;;;-0.20;99.90;;;;;;5007846;28;20658;-91
2021/12/26 06:25:29;;;;;;;4.60;1.10;;;-0.20;99.90;;;;;;5010104;28;20304;-92
2021/12/26 06:28:07;;;;;;;5.83;1.70;;;-0.20;99.90;;;;;;5029358;28;20282;-91
2021/12/26 06:30:41;;;;;;;4.87;1.40;;;-0.20;99.90;;;;;;5029583;28;20202;-93
2021/12/26 06:33:16;;;;;;;2.10;1.30;;;-0.20;99.90;;;;;;5034745;28;20227;-91
2021/12/26 06:35:49;;;;;;;9.73;4.40;;;-0.20;99.90;;;;;;5037713;28;20191;-90
2021/12/26 06:38:25;;;;;;;5.03;1.23;;;-0.20;99.90;;;;;;5037208;28;20209;-91
2021/12/26 06:41:00;;;;;;;6.53;5.07;;;-0.20;99.90;;;;;;5013658;28;20221;-90
2021/12/26 06:43:43;;;;;;;3.20;2.87;;;-0.30;99.90;;;;;;5753372;23;20291;-90
2021/12/26 06:46:28;;;;;;;6.13;5.63;;;-0.30;99.90;;;;;;5034322;28;20201;-90
2021/12/26 06:49:06;;;;;;;1.67;1.33;;;-0.30;99.90;;;;;;5032081;28;20221;-91
2021/12/26 06:51:58;;;;;;;2.47;1.20;;;-0.30;99.90;;;;;;5035035;28;20206;-88
2021/12/26 06:54:31;;;;;;;2.77;1.40;;;-0.30;99.90;;;;;;5619504;23;20231;-90
2021/12/26 06:57:04;;;;;;;2.50;1.40;;;-0.30;99.90;;;;;;5029074;28;20224;-91
2021/12/26 06:59:38;;;;;;;2.30;1.80;;;-0.30;99.90;;;;;;5030956;28;20329;-91
2021/12/26 07:10:21;;;;;;;3.37;2.37;;;-0.40;99.90;;;;;;5823383;23;20266;-89
2021/12/26 07:20:53;;;;;;;3.60;1.63;;;-0.50;99.90;;;;;;6024206;23;20196;-91
2021/12/26 07:28:49;;;;;;;2.17;1.50;;;-0.50;99.90;;;;;;5649197;22;20259;-92
2021/12/26 07:34:26;;;;;;;2.80;1.73;;;-0.60;99.90;;;;;;5509119;23;20238;-91
2021/12/26 07:37:00;;;;;;;7.40;2.73;;;-0.60;99.90;;;;;;5032614;28;20304;-91
2021/12/26 07:42:28;;;;;;;4.53;2.07;;;-0.60;99.90;;;;;;5527968;23;20256;-91
2021/12/26 07:47:38;;;;;;;7.07;1.90;;;-0.60;99.90;;;;;;6046102;22;20336;-92
2021/12/26 07:50:13;;;;;;;4.30;2.10;;;-0.50;99.90;;;;;;5047591;28;20228;-92
2021/12/26 07:52:46;;;;;;;5.57;1.93;;;-0.50;99.90;;;;;;5047327;28;20213;-92
2021/12/26 07:55:23;;;;;;;4.70;1.57;;;-0.60;99.90;;;;;;5047697;28;20212;-92
2021/12/26 07:57:55;;;;;;;3.50;1.90;;;-0.60;99.90;;;;;;5047412;28;20274;-92
2021/12/26 08:00:27;;;;;;;5.30;3.10;;;-0.60;99.90;;;;;;5047493;28;20212;-90
2021/12/26 08:05:35;;;;;;;6.30;1.97;;;-0.60;99.90;;;;;;5012717;28;20219;-91
2021/12/26 08:08:09;;;;;;;3.30;1.93;;;-0.60;99.90;;;;;;4995977;28;20207;-91
2021/12/26 08:10:44;;;;;;;4.43;1.90;;;-0.60;99.90;;;;;;5012411;28;20277;-91
2021/12/26 08:13:19;;;;;;;7.37;2.50;;;-0.60;99.90;;;;;;5010144;28;20205;-92
2021/12/26 08:15:51;;;;;;;3.47;2.07;;;-0.70;99.90;;;;;;5012585;28;20221;-91
2021/12/26 08:18:22;;;;;;;3.00;1.77;;;-0.70;99.90;;;;;;5011511;28;20220;-91
2021/12/26 08:20:56;;;;;;;4.63;2.03;;;-0.70;99.90;;;;;;4998127;28;20230;-90
2021/12/26 08:23:28;;;;;;;4.03;2.20;;;-0.70;99.90;;;;;;4994094;28;20249;-91
2021/12/26 08:26:02;;;;;;;6.47;2.00;;;-0.80;99.90;;;;;;5007658;28;20283;-92
2021/12/26 08:28:33;;;;;;;3.90;1.83;;;-0.70;99.90;;;;;;5006022;28;20206;-92
2021/12/26 08:31:06;;;;;;;7.77;2.30;;;-0.80;99.90;;;;;;5009157;28;20236;-90
2021/12/26 08:33:38;;;;;;;5.53;1.70;;;-0.80;99.90;;;;;;5007682;28;20214;-93
2021/12/26 08:36:12;;;;;;;6.73;1.87;;;-0.80;99.90;;;;;;5006051;28;20243;-92
2021/12/26 08:47:56;;;;;;;5.17;1.57;;;-0.80;99.90;;;;;;6075338;22;20203;-88
2021/12/26 08:50:29;;;;;;;3.73;1.80;;;-0.90;99.90;;;;;;5051589;28;20231;-90
2021/12/26 08:53:08;;;;;;;2.13;1.60;;;-0.90;99.90;;;;;;5058107;28;20197;-92
2021/12/26 08:55:41;;;;;;;4.17;1.70;;;-0.90;99.90;;;;;;5057559;28;20256;-92
2021/12/26 08:58:16;;;;;;;4.60;3.07;;;-0.90;99.90;;;;;;5053344;28;20213;-91
2021/12/26 09:00:55;;;;;;;3.93;3.33;;;-0.90;99.90;;;;;;5559991;22;20271;-90
2021/12/26 09:03:29;;;;;;;5.20;2.20;;;-0.90;99.90;;;;;;5115945;28;20234;-91
2021/12/26 09:06:26;;;;;;;2.20;1.80;;;-0.90;99.90;;;;;;5116757;28;20217;-91
2021/12/26 09:09:05;;;;;;;3.27;1.70;;;-0.90;99.90;;;;;;5113629;28;20203;-90
2021/12/26 09:11:41;;;;;;;3.30;1.70;;;-0.90;99.90;;;;;;5111874;28;20659;-92
2021/12/26 09:14:12;;;;;;;3.23;1.90;;;-0.90;99.90;;;;;;5086193;28;20252;-92
2021/12/26 09:16:46;;;;;;;3.30;2.00;;;-0.90;99.90;;;;;;5092329;28;20648;-90
2021/12/26 09:19:18;;;;;;;6.60;1.80;;;-0.90;99.90;;;;;;5096676;28;20207;-90
2021/12/26 09:21:51;;;;;;;6.30;1.83;;;-0.90;99.90;;;;;;5063767;28;20208;-92
2021/12/26 09:24:24;;;;;;;4.43;2.00;;;-0.90;99.90;;;;;;5096195;28;20445;-88
2021/12/26 09:26:56;;;;;;;3.97;1.50;;;-0.90;99.90;;;;;;5091440;28;20267;-89
2021/12/26 09:29:28;;;;;;;5.33;2.13;;;-0.80;99.90;;;;;;5092976;28;20222;-90
2021/12/26 09:32:02;;;;;;;7.67;5.00;;;-0.80;99.90;;;;;;5095089;28;20204;-89
2021/12/26 09:34:35;;;;;;;3.97;3.47;;;-0.80;99.90;;;;;;5107514;28;20230;-90
2021/12/26 09:37:10;;;;;;;4.70;1.97;;;-0.80;99.90;;;;;;5109704;28;20235;-91
2021/12/26 09:39:45;;;;;;;5.23;1.40;;;-0.80;99.90;;;;;;5091453;28;20223;-91
2021/12/26 09:42:18;;;;;;;2.97;1.57;;;-0.80;99.90;;;;;;5105840;28;20261;-91
2021/12/26 09:44:50;;;;;;;2.70;1.30;;;-0.80;99.90;;;;;;5110117;28;20234;-91
2021/12/26 09:47:24;;;;;;;2.13;1.10;;;-0.90;99.90;;;;;;5111358;28;20187;-89
2021/12/26 09:49:56;;;;;;;3.23;1.20;;;-0.90;99.90;;;;;;5106322;28;20202;-91
2021/12/26 09:52:28;;;;;;;2.63;0.63;;;-0.90;99.90;;;;;;5089840;28;20254;-91
2021/12/26 09:55:01;;;;;;;1.20;0.63;;;-1.00;99.90;;;;;;5091890;28;20203;-90
2021/12/26 09:57:33;;;;;;;4.17;0.70;;;-1.00;99.90;;;;;;5107784;28;20207;-90
2021/12/26 10:00:23;;;;;;;1.47;0.80;;;-1.10;99.90;;;;;;5105258;28;20249;-90
2021/12/26 10:03:16;;;;;;;3.10;0.80;;;-1.10;99.90;;;;;;5111143;28;20211;-92
2021/12/26 10:06:11;;;;;;;0.90;0.50;;;-1.20;99.90;;;;;;5103889;28;20218;-91
2021/12/26 10:09:01;;;;;;;1.73;0.57;;;-1.20;99.90;;;;;;5118440;28;20203;-90
2021/12/26 10:11:37;;;;;;;2.10;0.77;;;-1.20;99.90;;;;;;5106586;28;20229;-90
2021/12/26 10:22:13;;;;;;;0.60;0.60;;;-1.30;99.90;;;;;;5378076;22;20238;-89
2021/12/26 10:30:07;;;;;;;1.50;0.50;;;-1.30;99.90;;;;;;5721168;22;20242;-91
2021/12/26 10:32:41;;;;;;;0.73;0.50;;;-1.20;99.90;;;;;;5093880;28;20207;-88
2021/12/26 10:35:16;;;;;;;2.20;0.93;;;-1.20;99.90;;;;;;5095961;28;20222;-88
2021/12/26 10:48:37;;;;;;;1.27;0.93;;;-1.20;99.90;;;;;;5680807;22;21035;-89
2021/12/26 10:51:39;;;;;;;1.37;0.60;;;-1.20;99.90;;;;;;5116639;28;20191;-89
2021/12/26 11:05:11;;;;;;;1.07;0.70;;;-1.10;99.90;;;;;;5625889;22;20238;-91
2021/12/26 11:07:49;;;;;;;1.07;0.70;;;-1.10;99.90;;;;;;5089207;28;20234;-92
2021/12/26 11:10:27;;;;;;;1.30;0.67;;;-1.20;99.90;;;;;;5105704;28;20221;-90
2021/12/26 11:13:01;;;;;;;1.33;0.50;;;-1.10;99.90;;;;;;5115718;28;20195;-91
2021/12/26 11:15:38;;;;;;;0.90;0.67;;;-1.10;99.90;;;;;;5100140;28;20217;-90
2021/12/26 11:18:11;;;;;;;3.03;1.70;;;-1.10;99.90;;;;;;5094117;28;20207;-91
2021/12/26 11:20:49;;;;;;;0.33;0.33;;;-1.10;99.90;;;;;;5084527;28;20203;-92
2021/12/26 11:23:23;;;;;;;1.07;0.60;;;-1.10;99.90;;;;;;5099532;28;20272;-92
2021/12/26 11:25:57;;;;;;;0.70;0.40;;;-1.10;99.90;;;;;;5097595;28;20279;-92
2021/12/26 11:28:35;;;;;;;0.30;0.30;;;-1.10;99.90;;;;;;5098060;28;20289;-91
2021/12/26 11:31:10;;;;;;;0.77;0.47;;;-1.10;99.90;;;;;;5103767;28;20671;-92
2021/12/26 11:33:43;;;;;;;0.73;0.30;;;-1.00;99.90;;;;;;5101834;28;20638;-94
2021/12/26 11:36:17;;;;;;;0.47;0.30;;;-1.00;99.90;;;;;;5096835;28;20197;-94
2021/12/26 11:38:53;;;;;;;0.93;0.40;;;-1.00;99.90;;;;;;5081560;28;20210;-93
2021/12/26 11:41:36;;;;;;;1.20;0.40;;;-0.90;99.90;;;;;;5080745;28;20211;-92
2021/12/26 11:44:21;;;;;;;2.97;0.60;;;-0.90;99.90;;;;;;5088302;28;20223;-90
2021/12/26 11:47:14;;;;;;;2.07;0.43;;;-0.90;99.90;;;;;;5070891;28;20231;-91
2021/12/26 11:50:14;;;;;;;1.20;0.53;;;-0.90;99.90;;;;;;5083938;28;20259;-93
2021/12/26 11:53:09;;;;;;;0.60;0.40;;;-0.90;99.90;;;;;;5082075;28;20267;-93
2021/12/26 11:55:47;;;;;;;2.00;0.37;;;-0.90;99.90;;;;;;5083169;28;20266;-93
2021/12/26 11:58:35;;;;;;;1.60;0.33;;;-0.90;99.90;;;;;;5080726;28;20238;-92
2021/12/26 12:01:15;;;;;;;0.97;0.37;;;-0.90;99.90;;;;;;5082683;28;20208;-91
2021/12/26 12:03:49;;;;;;;1.93;0.43;;;-0.90;99.90;;;;;;5081989;28;20637;-93
2021/12/26 12:06:28;;;;;;;0.67;0.50;;;-0.90;99.90;;;;;;5079370;28;20267;-94
2021/12/26 12:09:21;;;;;;;1.70;0.40;;;-0.90;99.90;;;;;;5063141;28;20279;-93
2021/12/26 12:12:03;;;;;;;1.73;0.37;;;-0.90;99.90;;;;;;5081735;28;20208;-92
2021/12/26 12:14:52;;;;;;;1.27;0.50;;;-0.90;99.90;;;;;;5080386;28;20302;-92
2021/12/26 12:17:25;;;;;;;0.97;0.50;;;-0.80;99.90;;;;;;5062406;28;20282;-94
2021/12/26 12:20:14;;;;;;;1.40;0.60;;;-0.80;99.90;;;;;;5080294;28;20302;-93
2021/12/26 12:23:21;;;;;;;0.50;0.37;;;-0.80;99.90;;;;;;5082752;28;20281;-94
2021/12/26 12:25:55;;;;;;;1.60;0.43;;;-0.70;99.90;;;;;;5080084;28;20232;-93
2021/12/26 12:28:29;;;;;;;0.50;0.40;;;-0.70;99.90;;;;;;5061588;28;20271;-94
2021/12/26 12:31:18;;;;;;;1.03;0.53;;;-0.70;99.90;;;;;;5079924;28;20204;-94
2021/12/26 12:34:03;;;;;;;0.57;0.27;;;-0.70;99.90;;;;;;5080744;28;20219;-93
2021/12/26 12:36:38;;;;;;;0.60;0.60;;;-0.60;99.90;;;;;;5080122;28;20207;-93
2021/12/26 12:39:17;;;;;;;1.47;0.60;;;-0.70;99.90;;;;;;5081894;28;20207;-93
2021/12/26 12:41:53;;;;;;;0.47;0.37;;;-0.70;99.90;;;;;;5079694;28;20231;-94
2021/12/26 12:44:29;;;;;;;0.93;0.30;;;-0.60;99.90;;;;;;5079912;28;20207;-94
2021/12/26 12:47:06;;;;;;;0.53;0.43;;;-0.60;99.90;;;;;;5080923;28;20207;-92
2021/12/26 12:49:50;;;;;;;1.53;0.50;;;-0.60;99.90;;;;;;5081091;28;20401;-93
2021/12/26 12:52:59;;;;;;;1.00;0.30;;;-0.60;99.90;;;;;;5083032;28;20648;-93
2021/12/26 12:55:52;;;;;;;0.50;0.40;;;-0.60;99.90;;;;;;5062656;28;20207;-93
2021/12/26 12:58:31;;;;;;;0.60;0.40;;;-0.60;99.90;;;;;;5080099;28;20551;-92
2021/12/26 13:01:03;;;;;;;2.87;0.50;;;-0.60;99.90;;;;;;5063880;28;20212;-92
2021/12/26 13:03:36;;;;;;;1.77;0.40;;;-0.70;99.90;;;;;;5047466;28;20216;-92
2021/12/26 13:06:11;;;;;;;1.60;0.33;;;-0.60;99.90;;;;;;5063832;28;20231;-93
2021/12/26 13:08:43;;;;;;;0.77;0.27;;;-0.60;99.90;;;;;;5086787;28;20211;-91
2021/12/26 13:11:16;;;;;;;0.60;0.43;;;-0.60;99.90;;;;;;5081057;28;20204;-94
2021/12/26 13:13:50;;;;;;;0.67;0.30;;;-0.60;99.90;;;;;;5079251;28;20210;-93
2021/12/26 13:16:30;;;;;;;2.60;0.50;;;-0.50;99.90;;;;;;5062208;28;20731;-95
2021/12/26 13:19:06;;;;;;;0.40;0.30;;;-0.50;99.90;;;;;;5079135;28;20569;-93
2021/12/26 13:21:38;;;;;;;2.10;0.50;;;-0.50;99.90;;;;;;5079505;28;20257;-94
2021/12/26 13:24:10;;;;;;;2.70;0.60;;;-0.40;99.90;;;;;;5081089;28;20210;-93
2021/12/26 13:26:44;;;;;;;5.20;0.40;;;-0.40;99.90;;;;;;5079264;28;20277;-95
2021/12/26 13:29:17;;;;;;;0.30;0.30;;;-0.40;99.90;;;;;;5082277;28;20199;-91
2021/12/26 13:31:50;;;;;;;1.93;0.20;;;-0.40;99.90;;;;;;5098190;28;20188;-93
2021/12/26 13:34:21;;;;;;;1.00;0.37;;;-0.40;99.90;;;;;;5098112;28;20219;-93
2021/12/26 13:36:53;;;;;;;1.90;0.50;;;-0.40;99.90;;;;;;5088389;28;20373;-93
2021/12/26 13:39:26;;;;;;;2.20;0.70;;;-0.50;99.90;;;;;;5080059;28;20212;-92
2021/12/26 13:41:58;;;;;;;1.47;0.40;;;-0.40;99.90;;;;;;5081054;28;20693;-93
2021/12/26 13:44:33;;;;;;;0.50;0.40;;;-0.40;99.90;;;;;;5096088;28;20578;-93
2021/12/26 13:47:04;;;;;;;0.60;0.30;;;-0.40;99.90;;;;;;5098221;28;20617;-93
2021/12/26 13:49:35;;;;;;;1.13;0.50;;;-0.50;99.90;;;;;;5100344;28;20205;-93
2021/12/26 13:52:06;;;;;;;1.83;0.80;;;-0.50;99.90;;;;;;5095490;28;20241;-94
2021/12/26 13:54:50;;;;;;;1.77;0.60;;;-0.50;99.90;;;;;;5078629;28;20660;-94
2021/12/26 13:57:24;;;;;;;2.00;0.50;;;-0.60;99.90;;;;;;5077794;28;20728;-94
2021/12/26 14:00:01;;;;;;;0.30;0.23;;;-0.60;99.90;;;;;;5078776;28;20212;-93
2021/12/26 14:02:34;;;;;;;3.00;0.50;;;-0.60;99.90;;;;;;5081350;28;20203;-93
2021/12/26 14:05:08;;;;;;;3.03;0.40;;;-0.60;99.90;;;;;;5078183;28;20214;-94
2021/12/26 14:07:43;;;;;;;3.90;0.60;;;-0.50;99.90;;;;;;5076954;28;20221;-94
2021/12/26 14:10:17;;;;;;;3.60;0.60;;;-0.60;99.90;;;;;;5078492;28;20285;-94
2021/12/26 14:12:49;;;;;;;1.43;0.60;;;-0.50;99.90;;;;;;5079025;28;20202;-93
2021/12/26 14:15:29;;;;;;;2.20;0.50;;;-0.50;99.90;;;;;;5078562;28;20208;-91
2021/12/26 14:18:04;;;;;;;1.73;0.70;;;-0.50;99.90;;;;;;5077243;28;20251;-94
2021/12/26 14:20:49;;;;;;;2.90;0.47;;;-0.50;99.90;;;;;;5078746;28;20207;-93
2021/12/26 14:23:23;;;;;;;1.83;1.37;;;-0.60;99.90;;;;;;5082508;28;20196;-90
2021/12/26 14:25:59;;;;;;;2.30;0.80;;;-0.80;99.90;;;;;;5084062;28;20233;-91
2021/12/26 14:28:35;;;;;;;3.80;0.77;;;-0.80;99.90;;;;;;5086228;28;20212;-92
2021/12/26 14:31:12;;;;;;;2.63;0.80;;;-1.00;99.90;;;;;;5081294;28;20212;-92
2021/12/26 14:33:50;;;;;;;1.73;0.47;;;-1.00;99.90;;;;;;5077763;28;20241;-93
2021/12/26 14:36:22;;;;;;;3.20;0.70;;;-1.00;99.90;;;;;;5076319;28;20250;-92
2021/12/26 14:38:55;;;;;;;3.13;0.77;;;-0.90;99.90;;;;;;5078089;28;20304;-92
2021/12/26 14:41:37;;;;;;;3.87;0.80;;;-1.00;99.90;;;;;;5078339;28;20216;-92
2021/12/26 14:44:16;;;;;;;0.60;0.40;;;-1.00;99.90;;;;;;5091538;28;20655;-92
2021/12/26 14:46:53;;;;;;;1.80;1.80;;;-1.00;99.90;;;;;;5096292;28;20235;-92
2021/12/26 14:49:29;;;;;;;1.20;0.20;;;-1.00;99.90;;;;;;5097658;28;20256;-93
2021/12/26 14:52:03;;;;;;;0.60;0.30;;;-1.00;99.90;;;;;;5097735;28;20561;-93
2021/12/26 14:54:40;;;;;;;0.60;0.30;;;-1.10;99.90;;;;;;5097358;28;20207;-92
2021/12/26 14:57:13;;;;;;;0.93;0.50;;;-1.10;99.90;;;;;;5075794;28;20269;-93
2021/12/26 14:59:52;;;;;;;0.23;0.20;;;-1.10;99.90;;;;;;5097858;28;20667;-93
2021/12/26 15:02:35;;;;;;;0.50;0.33;;;-1.20;99.90;;;;;;5102118;28;20224;-93
2021/12/26 15:05:10;;;;;;;0.53;0.40;;;-1.30;99.90;;;;;;5100685;28;21073;-94
2021/12/26 15:07:44;;;;;;;0.97;0.37;;;-1.30;99.90;;;;;;5102761;28;20218;-93
2021/12/26 15:10:17;;;;;;;0.30;0.20;;;-1.40;99.90;;;;;;5087178;28;20206;-93
2021/12/26 15:12:49;;;;;;;1.33;0.30;;;-1.40;99.90;;;;;;5099561;28;20206;-94
2021/12/26 15:15:26;;;;;;;1.90;0.40;;;-1.50;99.90;;;;;;5081864;28;20207;-93